createdAt,value
2023-01-20T00:01:46.315Z,19.53
2023-01-20T00:04:15.062Z,19.23
2023-01-20T00:06:43.372Z,19.43
2023-01-20T00:09:16.928Z,19.70
2023-01-20T00:11:45.659Z,23.03
2023-01-20T00:14:15.567Z,21.17
2023-01-20T00:16:43.763Z,20.80
2023-01-20T00:19:14.918Z,24.00
2023-01-20T00:21:43.437Z,20.30
2023-01-20T00:24:11.630Z,20.57
2023-01-20T00:26:39.799Z,18.07
2023-01-20T00:29:08.002Z,24.17
2023-01-20T00:31:37.639Z,19.70
2023-01-20T00:34:06.374Z,20.47
2023-01-20T00:36:35.163Z,17.10
2023-01-20T00:39:04.591Z,16.80
2023-01-20T00:41:32.808Z,21.00
2023-01-20T00:44:01.065Z,16.23
2023-01-20T00:46:29.505Z,16.47
2023-01-20T00:48:59.184Z,17.17
2023-01-20T00:51:27.383Z,22.53
2023-01-20T00:53:55.589Z,17.07
2023-01-20T00:56:23.969Z,20.73
2023-01-20T00:58:52.224Z,17.23
2023-01-20T01:01:20.495Z,19.43
2023-01-20T01:03:48.875Z,17.63
2023-01-20T01:06:19.198Z,16.57
2023-01-20T01:08:47.547Z,20.33
2023-01-20T01:11:15.883Z,17.17
2023-01-20T01:13:44.583Z,16.63
2023-01-20T01:16:14.798Z,16.47
2023-01-20T01:18:43.670Z,14.63
2023-01-20T01:21:15.193Z,18.07
2023-01-20T01:23:45.241Z,15.93
2023-01-20T01:26:13.504Z,15.57
2023-01-20T01:28:42.131Z,14.47
2023-01-20T01:31:10.947Z,18.07
2023-01-20T01:33:39.704Z,18.10
2023-01-20T01:36:12.255Z,16.80
2023-01-20T01:38:40.618Z,18.17
2023-01-20T01:41:13.021Z,21.17
2023-01-20T01:43:41.966Z,21.57
2023-01-20T01:46:10.201Z,17.57
2023-01-20T01:48:44.099Z,16.80
2023-01-20T01:51:16.591Z,19.93
2023-01-20T01:53:53.711Z,18.57
2023-01-20T01:56:25.454Z,18.23
2023-01-20T01:58:58.260Z,22.83
2023-01-20T02:01:27.664Z,21.30
2023-01-20T02:04:00.999Z,17.50
2023-01-20T02:06:34.857Z,16.77
2023-01-20T02:09:05.528Z,17.00
2023-01-20T02:11:40.081Z,19.97
2023-01-20T02:14:09.721Z,23.70
2023-01-20T02:16:49.560Z,23.50
2023-01-20T02:20:00.550Z,18.30
2023-01-20T02:22:42.700Z,16.30
2023-01-20T02:26:01.894Z,15.57
2023-01-20T02:29:10.719Z,15.87
2023-01-20T02:32:06.087Z,14.73
2023-01-20T02:34:40.086Z,17.33
2023-01-20T02:37:16.134Z,17.63
2023-01-20T02:39:57.994Z,15.30
2023-01-20T02:42:33.342Z,16.00
2023-01-20T02:45:07.345Z,19.43
2023-01-20T02:47:51.894Z,14.30
2023-01-20T02:50:25.127Z,14.97
2023-01-20T02:52:57.288Z,15.40
2023-01-20T02:55:38.974Z,22.80
2023-01-20T02:58:12.364Z,16.50
2023-01-20T03:00:46.018Z,20.17
2023-01-20T03:03:23.164Z,18.73
2023-01-20T03:05:56.786Z,47.83
2023-01-20T03:08:28.543Z,41.23
2023-01-20T03:11:01.172Z,25.00
2023-01-20T03:13:35.561Z,22.47
2023-01-20T03:16:09.216Z,18.93
2023-01-20T03:18:39.618Z,17.07
2023-01-20T03:21:10.342Z,17.37
2023-01-20T03:23:44.029Z,16.00
2023-01-20T03:26:15.572Z,15.40
2023-01-20T03:28:45.291Z,14.83
2023-01-20T03:31:19.487Z,16.33
2023-01-20T03:33:52.075Z,15.43
2023-01-20T03:36:23.332Z,11.63
2023-01-20T03:38:51.812Z,13.57
2023-01-20T03:41:34.758Z,12.50
2023-01-20T03:44:13.430Z,11.63
2023-01-20T03:46:48.050Z,12.07
2023-01-20T03:49:27.287Z,13.93
2023-01-20T03:52:04.678Z,19.40
2023-01-20T03:54:43.875Z,16.70
2023-01-20T03:57:17.815Z,13.97
2023-01-20T03:59:49.548Z,13.10
2023-01-20T04:02:18.109Z,14.07
2023-01-20T04:04:50.665Z,16.40
2023-01-20T04:07:23.826Z,16.03
2023-01-20T04:09:56.007Z,14.40
2023-01-20T04:12:24.479Z,13.70
2023-01-20T04:14:52.599Z,18.43
2023-01-20T04:17:21.349Z,12.97
2023-01-20T04:19:50.958Z,15.33
2023-01-20T04:22:27.871Z,11.07
2023-01-20T04:25:00.735Z,11.80
2023-01-20T04:27:29.127Z,17.63
2023-01-20T04:29:57.301Z,18.13
2023-01-20T04:32:25.561Z,12.57
2023-01-20T04:34:56.978Z,15.83
2023-01-20T04:37:26.133Z,13.00
2023-01-20T04:39:54.650Z,13.10
2023-01-20T04:42:22.791Z,14.17
2023-01-20T04:44:50.969Z,14.60
2023-01-20T04:47:19.130Z,13.00
2023-01-20T04:49:47.255Z,15.20
2023-01-20T04:52:17.414Z,12.77
2023-01-20T04:54:45.615Z,12.93
2023-01-20T04:57:13.723Z,17.53
2023-01-20T04:59:43.162Z,14.03
2023-01-20T05:02:11.468Z,17.67
2023-01-20T05:04:39.659Z,18.53
2023-01-20T05:07:07.863Z,18.13
2023-01-20T05:09:37.455Z,16.20
2023-01-20T05:12:06.827Z,14.97
2023-01-20T05:14:34.971Z,15.70
2023-01-20T05:17:03.166Z,14.77
2023-01-20T05:19:31.354Z,18.90
2023-01-20T05:22:01.138Z,14.10
2023-01-20T05:24:30.940Z,16.63
2023-01-20T05:27:03.142Z,17.50
2023-01-20T05:29:31.628Z,16.30
2023-01-20T05:31:59.892Z,17.73
2023-01-20T05:34:28.062Z,20.37
2023-01-20T05:36:56.380Z,14.83
2023-01-20T05:39:24.512Z,13.57
2023-01-20T05:41:52.718Z,14.53
2023-01-20T05:44:22.332Z,18.97
2023-01-20T05:46:50.548Z,18.97
2023-01-20T05:49:18.970Z,24.50
2023-01-20T05:51:47.137Z,16.90
2023-01-20T05:54:15.302Z,20.80
2023-01-20T05:56:43.506Z,25.70
2023-01-20T05:59:11.970Z,22.70
2023-01-20T06:01:41.619Z,15.53
2023-01-20T06:04:10.061Z,17.13
2023-01-20T06:06:38.861Z,19.07
2023-01-20T06:09:07.597Z,15.07
2023-01-20T06:11:35.989Z,17.00
2023-01-20T06:14:04.204Z,19.83
2023-01-20T06:16:32.423Z,14.33
2023-01-20T06:19:02.009Z,18.10
2023-01-20T06:21:30.365Z,14.27
2023-01-20T06:23:58.555Z,19.90
2023-01-20T06:26:26.761Z,15.30
2023-01-20T06:29:00.530Z,15.00
2023-01-20T06:31:29.129Z,14.10
2023-01-20T06:33:57.746Z,16.60
2023-01-20T06:36:27.551Z,15.73
2023-01-20T06:38:55.880Z,17.30
2023-01-20T06:41:24.918Z,17.83
2023-01-20T06:43:53.101Z,18.63
2023-01-20T06:46:22.292Z,13.73
2023-01-20T06:48:51.351Z,15.50
2023-01-20T06:51:21.739Z,14.77
2023-01-20T06:53:51.451Z,16.70
2023-01-20T06:56:19.613Z,54.07
2023-01-20T06:58:48.019Z,18.00
2023-01-20T07:01:21.035Z,20.40
2023-01-20T07:03:49.249Z,16.07
2023-01-20T07:06:23.930Z,17.23
2023-01-20T07:08:53.942Z,16.53
2023-01-20T07:11:22.435Z,13.83
2023-01-20T07:13:50.836Z,22.00
2023-01-20T07:16:19.166Z,16.00
2023-01-20T07:18:50.655Z,16.10
2023-01-20T07:21:20.005Z,20.43
2023-01-20T07:23:48.997Z,17.87
2023-01-20T07:26:21.745Z,18.57
2023-01-20T07:28:50.057Z,15.67
2023-01-20T07:31:20.407Z,16.83
2023-01-20T07:33:49.304Z,18.03
2023-01-20T07:36:18.634Z,16.07
2023-01-20T07:38:49.467Z,17.40
2023-01-20T07:41:20.323Z,19.27
2023-01-20T07:43:50.758Z,19.23
2023-01-20T07:46:20.172Z,16.53
2023-01-20T07:48:48.537Z,18.63
2023-01-20T07:51:17.928Z,17.60
2023-01-20T07:53:48.557Z,22.10
2023-01-20T07:56:21.259Z,17.30
2023-01-20T07:58:50.673Z,21.37
2023-01-20T08:01:23.647Z,17.40
2023-01-20T08:03:52.590Z,19.73
2023-01-20T08:06:23.600Z,12.07
2023-01-20T08:08:52.289Z,16.87
2023-01-20T08:11:23.635Z,13.93
2023-01-20T08:13:52.007Z,28.43
2023-01-20T08:16:20.883Z,17.40
2023-01-20T08:18:50.063Z,13.90
2023-01-20T08:21:22.152Z,15.67
2023-01-20T08:23:51.226Z,18.73
2023-01-20T08:26:21.022Z,16.17
2023-01-20T08:28:49.353Z,15.60
2023-01-20T08:31:21.143Z,14.73
2023-01-20T08:33:50.369Z,17.80
2023-01-20T08:36:21.890Z,16.10
2023-01-20T08:38:50.836Z,16.40
2023-01-20T08:41:23.242Z,16.57
2023-01-20T08:43:51.959Z,22.63
2023-01-20T08:46:22.388Z,17.47
2023-01-20T08:48:52.155Z,16.03
2023-01-20T08:51:24.438Z,19.30
2023-01-20T08:53:52.966Z,16.30
2023-01-20T08:56:24.300Z,20.97
2023-01-20T08:58:54.002Z,15.33
2023-01-20T09:01:25.761Z,16.83
2023-01-20T09:04:05.364Z,17.90
2023-01-20T09:06:40.277Z,19.53
2023-01-20T09:09:08.617Z,20.13
2023-01-20T09:11:38.264Z,17.13
2023-01-20T09:14:09.437Z,13.90
2023-01-20T09:16:37.687Z,16.70
2023-01-20T09:19:05.958Z,17.37
2023-01-20T09:21:34.218Z,17.53
2023-01-20T09:24:02.548Z,17.83
2023-01-20T09:26:38.277Z,21.30
2023-01-20T09:29:11.161Z,17.70
2023-01-20T09:31:41.381Z,16.00
2023-01-20T09:34:09.622Z,16.33
2023-01-20T09:36:38.164Z,16.20
2023-01-20T09:39:23.954Z,17.03
2023-01-20T09:42:10.798Z,17.50
2023-01-20T09:44:49.659Z,15.70
2023-01-20T09:47:30.909Z,14.87
2023-01-20T09:50:36.639Z,17.70
2023-01-20T09:53:15.569Z,15.00
2023-01-20T09:55:50.382Z,13.17
2023-01-20T09:58:29.063Z,16.97
2023-01-20T10:01:07.985Z,19.90
2023-01-20T10:03:42.992Z,15.90
2023-01-20T10:06:17.076Z,16.30
2023-01-20T10:09:04.842Z,19.17
2023-01-20T10:11:39.761Z,20.80
2023-01-20T10:14:16.946Z,14.30
2023-01-20T10:16:55.788Z,14.63
2023-01-20T10:19:34.552Z,16.93
2023-01-20T10:22:12.092Z,14.80
2023-01-20T10:24:49.326Z,11.20
2023-01-20T10:27:17.636Z,14.63
2023-01-20T10:29:50.405Z,17.30
2023-01-20T10:32:29.660Z,15.87
2023-01-20T10:34:59.394Z,14.83
2023-01-20T10:37:27.859Z,15.57
2023-01-20T10:40:02.777Z,20.13
2023-01-20T10:42:31.382Z,17.53
2023-01-20T10:45:00.942Z,13.73
2023-01-20T10:47:45.412Z,14.97
2023-01-20T10:50:40.873Z,18.00
2023-01-20T10:53:40.567Z,16.27
2023-01-20T10:56:27.073Z,13.10
2023-01-20T10:58:57.725Z,13.83
2023-01-20T11:01:26.197Z,13.37
2023-01-20T11:03:56.122Z,11.47
2023-01-20T11:06:27.623Z,10.50
2023-01-20T11:08:57.045Z,14.03
2023-01-20T11:11:27.246Z,12.47
2023-01-20T11:13:57.447Z,11.20
2023-01-20T11:16:29.744Z,11.37
2023-01-20T11:19:02.988Z,11.60
2023-01-20T11:21:36.584Z,10.80
2023-01-20T11:24:29.564Z,12.00
2023-01-20T11:27:05.671Z,12.03
2023-01-20T11:29:44.817Z,9.60
2023-01-20T11:32:34.280Z,21.00
2023-01-20T11:35:21.369Z,13.00
2023-01-20T11:37:49.946Z,12.83
2023-01-20T11:40:22.926Z,9.10
2023-01-20T11:42:53.427Z,9.50
2023-01-20T11:45:32.708Z,10.70
2023-01-20T11:48:08.246Z,8.03
2023-01-20T11:50:43.955Z,16.73
2023-01-20T11:53:25.268Z,10.47
2023-01-20T11:55:56.432Z,11.70
2023-01-20T11:58:27.969Z,9.70
2023-01-20T12:01:08.739Z,10.80
2023-01-20T12:04:09.174Z,10.27
2023-01-20T12:06:54.910Z,12.23
2023-01-20T12:09:29.572Z,13.63
2023-01-20T12:12:00.735Z,8.17
2023-01-20T12:14:33.498Z,8.20
2023-01-20T12:17:22.455Z,10.10
2023-01-20T12:20:06.348Z,7.57
2023-01-20T12:22:47.444Z,10.27
2023-01-20T12:25:22.669Z,9.43
2023-01-20T12:27:55.686Z,8.17
2023-01-20T12:30:44.350Z,8.83
2023-01-20T12:33:25.242Z,11.10
2023-01-20T12:36:39.373Z,12.40
2023-01-20T12:39:49.149Z,8.23
2023-01-20T12:43:16.173Z,8.43
2023-01-20T12:46:03.690Z,8.53
2023-01-20T12:48:45.206Z,7.70
2023-01-20T12:51:29.986Z,8.27
2023-01-20T12:54:35.838Z,9.70
2023-01-20T12:57:26.302Z,12.90
2023-01-20T13:00:14.561Z,6.87
2023-01-20T13:03:49.292Z,9.17
2023-01-20T13:06:43.834Z,4.60
2023-01-20T13:09:33.054Z,8.63
2023-01-20T13:12:15.808Z,7.40
2023-01-20T13:14:47.514Z,7.80
2023-01-20T13:17:24.232Z,6.70
2023-01-20T13:19:54.657Z,4.43
2023-01-20T13:22:25.935Z,6.33
2023-01-20T13:24:56.092Z,7.53
2023-01-20T13:27:29.433Z,5.07
2023-01-20T13:29:59.589Z,7.20
2023-01-20T13:32:30.413Z,11.57
2023-01-20T13:34:59.990Z,10.20
2023-01-20T13:37:32.981Z,15.53
2023-01-20T13:40:01.653Z,8.60
2023-01-20T13:42:51.825Z,9.50
2023-01-20T13:45:24.567Z,9.73
2023-01-20T13:47:58.590Z,6.43
2023-01-20T13:50:32.367Z,9.90
2023-01-20T13:53:29.646Z,10.40
2023-01-20T13:56:27.231Z,11.33
2023-01-20T13:59:10.080Z,6.97
2023-01-20T14:01:39.663Z,9.57
2023-01-20T14:04:15.804Z,7.23
2023-01-20T14:06:47.477Z,8.70
2023-01-20T14:09:21.129Z,12.50
2023-01-20T14:11:55.210Z,10.17
2023-01-20T14:14:27.550Z,7.43
2023-01-20T14:16:57.606Z,9.17
2023-01-20T14:19:32.355Z,6.27
2023-01-20T14:22:03.583Z,7.67
2023-01-20T14:24:37.697Z,9.80
2023-01-20T14:27:12.788Z,8.73
2023-01-20T14:29:42.540Z,5.30
2023-01-20T14:32:22.182Z,14.10
2023-01-20T14:34:51.202Z,8.53
2023-01-20T14:37:27.933Z,6.87
2023-01-20T14:39:58.853Z,9.57
2023-01-20T14:42:29.754Z,8.37
2023-01-20T14:44:59.821Z,10.20
2023-01-20T14:47:29.543Z,8.73
2023-01-20T14:49:57.968Z,7.60
2023-01-20T14:52:29.896Z,8.43
2023-01-20T14:54:59.225Z,4.70
2023-01-20T14:57:30.856Z,4.90
2023-01-20T15:00:17.616Z,9.90
2023-01-20T15:03:04.973Z,6.63
2023-01-20T15:05:41.070Z,5.50
2023-01-20T15:08:25.966Z,6.60
2023-01-20T15:11:21.940Z,6.40
2023-01-20T15:14:11.200Z,6.60
2023-01-20T15:16:52.953Z,12.40
2023-01-20T15:19:33.696Z,6.60
2023-01-20T15:22:21.630Z,7.77
2023-01-20T15:24:51.318Z,5.10
2023-01-20T15:27:37.394Z,17.43
2023-01-20T15:30:20.440Z,6.97
2023-01-20T15:32:51.350Z,6.77
2023-01-20T15:35:22.881Z,9.80
2023-01-20T15:37:52.672Z,6.57
2023-01-20T15:40:23.130Z,17.90
2023-01-20T15:42:53.308Z,4.90
2023-01-20T15:45:21.696Z,5.20
2023-01-20T15:47:51.253Z,7.97
2023-01-20T15:50:24.162Z,5.47
2023-01-20T15:52:52.379Z,5.60
2023-01-20T15:55:20.987Z,5.27
2023-01-20T15:57:53.226Z,4.50
2023-01-20T16:00:24.472Z,7.27
2023-01-20T16:02:54.203Z,8.13
2023-01-20T16:05:23.047Z,6.07
2023-01-20T16:07:51.496Z,5.90
2023-01-20T16:10:20.804Z,5.73
2023-01-20T16:12:49.522Z,5.37
2023-01-20T16:15:19.114Z,4.07
2023-01-20T16:17:47.963Z,5.00
2023-01-20T16:20:28.817Z,7.50
2023-01-20T16:22:57.840Z,5.80
2023-01-20T16:25:26.192Z,6.13
2023-01-20T16:27:54.582Z,6.97
2023-01-20T16:30:24.100Z,6.20
2023-01-20T16:32:52.814Z,5.40
2023-01-20T16:35:23.737Z,8.23
2023-01-20T16:37:53.578Z,11.13
2023-01-20T16:40:24.639Z,12.60
2023-01-20T16:42:56.739Z,13.17
2023-01-20T16:45:28.957Z,7.90
2023-01-20T16:47:58.250Z,9.10
2023-01-20T16:50:28.348Z,9.90
2023-01-20T16:52:58.209Z,7.47
2023-01-20T16:55:26.794Z,8.50
2023-01-20T16:57:55.230Z,9.13
2023-01-20T17:00:25.617Z,7.70
2023-01-20T17:02:54.294Z,9.17
2023-01-20T17:05:25.615Z,10.20
2023-01-20T17:07:56.867Z,6.17
2023-01-20T17:10:28.140Z,9.50
2023-01-20T17:12:57.435Z,8.00
2023-01-20T17:15:26.627Z,8.43
2023-01-20T17:17:58.349Z,7.60
2023-01-20T17:20:27.790Z,6.30
2023-01-20T17:22:56.446Z,5.53
2023-01-20T17:25:26.417Z,6.63
2023-01-20T17:27:56.256Z,6.40
2023-01-20T17:30:26.303Z,6.23
2023-01-20T17:32:54.887Z,6.40
2023-01-20T17:35:23.281Z,9.20
2023-01-20T17:37:56.690Z,6.00
2023-01-20T17:40:26.336Z,5.93
2023-01-20T17:42:55.100Z,7.63
2023-01-20T17:45:23.342Z,9.60
2023-01-20T17:47:52.565Z,14.30
2023-01-20T17:50:20.782Z,10.43
2023-01-20T17:52:49.512Z,11.53
2023-01-20T17:55:18.278Z,14.47
2023-01-20T17:57:48.088Z,12.67
2023-01-20T18:00:17.415Z,15.63
2023-01-20T18:02:45.946Z,14.93
2023-01-20T18:05:14.471Z,14.60
2023-01-20T18:07:42.839Z,19.70
2023-01-20T18:10:12.627Z,19.53
2023-01-20T18:12:41.083Z,17.80
2023-01-20T18:15:11.606Z,17.00
2023-01-20T18:17:43.353Z,16.50
2023-01-20T18:20:14.889Z,18.00
2023-01-20T18:22:49.241Z,20.33
2023-01-20T18:25:17.875Z,14.50
2023-01-20T18:27:47.168Z,16.97
2023-01-20T18:30:18.319Z,14.50
2023-01-20T18:32:47.005Z,17.30
2023-01-20T18:35:15.388Z,16.03
2023-01-20T18:37:43.657Z,18.00
2023-01-20T18:40:14.100Z,16.93
2023-01-20T18:42:45.093Z,17.60
2023-01-20T18:45:13.512Z,14.57
2023-01-20T18:47:42.977Z,18.27
2023-01-20T18:50:12.486Z,15.33
2023-01-20T18:52:40.582Z,13.50
2023-01-20T18:55:10.209Z,13.00
2023-01-20T18:57:38.461Z,18.53
2023-01-20T19:00:09.699Z,26.90
2023-01-20T19:02:38.256Z,37.30
2023-01-20T19:05:09.536Z,33.70
2023-01-20T19:07:37.709Z,24.53
2023-01-20T19:10:07.042Z,19.97
2023-01-20T19:12:35.381Z,24.17
2023-01-20T19:15:03.564Z,31.17
2023-01-20T19:17:32.990Z,70.43
2023-01-20T19:20:01.824Z,38.53
2023-01-20T19:22:31.463Z,22.90
2023-01-20T19:25:00.206Z,20.60
2023-01-20T19:27:28.379Z,16.97
2023-01-20T19:29:56.659Z,19.03
2023-01-20T19:32:24.881Z,21.20
2023-01-20T19:34:53.059Z,18.30
2023-01-20T19:37:21.387Z,26.37
2023-01-20T19:39:50.929Z,20.37
2023-01-20T19:42:19.262Z,20.17
2023-01-20T19:44:47.629Z,21.77
2023-01-20T19:47:15.810Z,19.50
2023-01-20T19:49:43.990Z,21.20
2023-01-20T19:52:12.193Z,21.43
2023-01-20T19:54:40.417Z,22.63
2023-01-20T19:57:10.122Z,16.77
2023-01-20T19:59:40.845Z,22.63
2023-01-20T20:02:10.356Z,22.00
2023-01-20T20:04:38.646Z,19.57
2023-01-20T20:07:07.014Z,19.57
2023-01-20T20:09:35.387Z,19.40
2023-01-20T20:12:06.126Z,37.43
2023-01-20T20:14:35.898Z,36.77
2023-01-20T20:17:04.456Z,25.40
2023-01-20T20:19:32.725Z,29.87
2023-01-20T20:22:00.934Z,20.40
2023-01-20T20:24:29.536Z,17.20
2023-01-20T20:26:57.819Z,20.23
2023-01-20T20:29:26.099Z,18.17
2023-01-20T20:31:55.787Z,20.50
2023-01-20T20:34:24.230Z,19.93
2023-01-20T20:36:52.560Z,15.70
2023-01-20T20:39:21.046Z,18.63
2023-01-20T20:41:49.378Z,16.60
2023-01-20T20:44:17.763Z,21.13
2023-01-20T20:46:46.213Z,19.67
2023-01-20T20:49:16.928Z,21.90
2023-01-20T20:51:45.272Z,14.87
2023-01-20T20:54:16.688Z,18.70
2023-01-20T20:56:45.332Z,15.50
2023-01-20T20:59:13.479Z,19.43
2023-01-20T21:01:41.766Z,12.37
2023-01-20T21:04:11.492Z,14.37
2023-01-20T21:06:41.055Z,18.20
2023-01-20T21:09:09.643Z,17.30
2023-01-20T21:11:38.689Z,16.70
2023-01-20T21:14:08.220Z,15.80
2023-01-20T21:16:36.595Z,19.27
2023-01-20T21:19:05.126Z,18.43
2023-01-20T21:21:33.645Z,16.00
2023-01-20T21:24:03.462Z,14.73
2023-01-20T21:26:32.930Z,23.47
2023-01-20T21:29:03.649Z,34.93
2023-01-20T21:31:32.595Z,24.93
2023-01-20T21:34:01.228Z,26.70
2023-01-20T21:36:31.161Z,21.87
2023-01-20T21:39:00.504Z,21.43
2023-01-20T21:41:30.984Z,19.90
2023-01-20T21:44:17.242Z,29.17
2023-01-20T21:46:45.562Z,39.77
2023-01-20T21:49:31.508Z,54.67
2023-01-20T21:52:17.392Z,52.07
2023-01-20T21:54:45.881Z,38.60
2023-01-20T21:57:15.776Z,40.23
2023-01-20T21:59:45.722Z,35.10
2023-01-20T22:02:15.584Z,50.80
2023-01-20T22:04:46.046Z,43.57
2023-01-20T22:07:14.999Z,30.47
2023-01-20T22:09:43.492Z,22.10
2023-01-20T22:12:12.492Z,28.07
2023-01-20T22:14:42.404Z,26.37
2023-01-20T22:17:12.937Z,23.23
2023-01-20T22:19:41.188Z,28.17
2023-01-20T22:22:09.455Z,25.03
2023-01-20T22:24:37.694Z,21.37
2023-01-20T22:27:05.932Z,24.30
2023-01-20T22:29:34.249Z,21.77
2023-01-20T22:32:05.002Z,22.87
2023-01-20T22:34:33.242Z,18.37
2023-01-20T22:37:01.646Z,24.47
2023-01-20T22:39:30.607Z,24.67
2023-01-20T22:41:58.820Z,19.67
2023-01-20T22:44:26.949Z,33.17
2023-01-20T22:46:55.179Z,13.57
2023-01-20T22:49:24.750Z,14.10
2023-01-20T22:51:55.345Z,14.37
2023-01-20T22:54:23.599Z,13.30
2023-01-20T22:56:51.818Z,12.73
2023-01-20T22:59:20.028Z,9.13
2023-01-20T23:01:48.203Z,8.93
2023-01-20T23:04:16.394Z,14.37
2023-01-20T23:06:45.939Z,11.50
2023-01-20T23:09:15.263Z,12.70
2023-01-20T23:11:43.813Z,12.27
2023-01-20T23:14:13.574Z,16.07
2023-01-20T23:16:42.826Z,16.13
2023-01-20T23:19:12.639Z,19.57
2023-01-20T23:21:40.799Z,26.20
2023-01-20T23:24:10.464Z,24.40
2023-01-20T23:26:38.679Z,24.00
2023-01-20T23:29:07.079Z,20.13
2023-01-20T23:31:35.592Z,27.37
2023-01-20T23:34:03.871Z,25.07
2023-01-20T23:36:32.107Z,19.00
2023-01-20T23:39:00.311Z,17.97
2023-01-20T23:41:29.967Z,15.80
2023-01-20T23:43:58.177Z,15.77
2023-01-20T23:46:26.424Z,14.17
2023-01-20T23:48:54.620Z,16.27
2023-01-20T23:51:23.512Z,16.10
2023-01-20T23:53:51.765Z,16.10
2023-01-20T23:56:23.791Z,13.10
2023-01-20T23:58:53.667Z,13.00
